sensor_id;sensor_type;location;lat;lon;timestamp;P1;durP1;ratioP1;P2;durP2;ratioP2
14686;SDS011;7431;49.440;11.084;2024-03-07T00:02:15;12.93;;;7.27;;
14686;SDS011;7431;49.440;11.084;2024-03-07T00:04:42;15.63;;;7.50;;
14686;SDS011;7431;49.440;11.084;2024-03-07T00:07:08;10.70;;;6.67;;
14686;SDS011;7431;49.440;11.084;2024-03-07T00:09:34;10.43;;;7.00;;
14686;SDS011;7431;49.440;11.084;2024-03-07T00:12:01;17.07;;;8.83;;
14686;SDS011;7431;49.440;11.084;2024-03-07T00:14:27;13.57;;;7.27;;
14686;SDS011;7431;49.440;11.084;2024-03-07T00:16:56;9.13;;;6.77;;
14686;SDS011;7431;49.440;11.084;2024-03-07T00:19:22;8.77;;;4.93;;
14686;SDS011;7431;49.440;11.084;2024-03-07T00:21:52;15.33;;;8.53;;
14686;SDS011;7431;49.440;11.084;2024-03-07T00:24:18;15.37;;;8.60;;
14686;SDS011;7431;49.440;11.084;2024-03-07T00:26:44;8.63;;;6.33;;
14686;SDS011;7431;49.440;11.084;2024-03-07T00:29:10;11.27;;;7.30;;
14686;SDS011;7431;49.440;11.084;2024-03-07T00:31:36;14.10;;;8.53;;
14686;SDS011;7431;49.440;11.084;2024-03-07T00:34:02;10.27;;;7.23;;
14686;SDS011;7431;49.440;11.084;2024-03-07T00:36:28;9.50;;;5.40;;
14686;SDS011;7431;49.440;11.084;2024-03-07T00:38:54;11.53;;;6.50;;
14686;SDS011;7431;49.440;11.084;2024-03-07T00:41:20;12.03;;;7.03;;
14686;SDS011;7431;49.440;11.084;2024-03-07T00:43:46;9.73;;;5.90;;
14686;SDS011;7431;49.440;11.084;2024-03-07T00:46:12;10.27;;;6.23;;
14686;SDS011;7431;49.440;11.084;2024-03-07T00:48:39;12.67;;;7.20;;
14686;SDS011;7431;49.440;11.084;2024-03-07T00:51:05;14.80;;;5.97;;
14686;SDS011;7431;49.440;11.084;2024-03-07T00:53:34;10.57;;;6.50;;
14686;SDS011;7431;49.440;11.084;2024-03-07T00:56:01;9.87;;;5.73;;
14686;SDS011;7431;49.440;11.084;2024-03-07T00:58:28;8.03;;;5.70;;
14686;SDS011;7431;49.440;11.084;2024-03-07T01:00:54;10.90;;;6.10;;
14686;SDS011;7431;49.440;11.084;2024-03-07T01:03:19;8.43;;;4.83;;
14686;SDS011;7431;49.440;11.084;2024-03-07T01:05:46;8.97;;;5.30;;
14686;SDS011;7431;49.440;11.084;2024-03-07T01:08:12;9.73;;;6.03;;
14686;SDS011;7431;49.440;11.084;2024-03-07T01:10:38;9.03;;;4.07;;
14686;SDS011;7431;49.440;11.084;2024-03-07T01:13:04;8.57;;;5.70;;
14686;SDS011;7431;49.440;11.084;2024-03-07T01:15:33;9.20;;;4.87;;
14686;SDS011;7431;49.440;11.084;2024-03-07T01:17:59;8.43;;;5.47;;
14686;SDS011;7431;49.440;11.084;2024-03-07T01:20:25;10.20;;;6.67;;
14686;SDS011;7431;49.440;11.084;2024-03-07T01:22:51;9.70;;;5.87;;
14686;SDS011;7431;49.440;11.084;2024-03-07T01:25:18;7.03;;;4.13;;
14686;SDS011;7431;49.440;11.084;2024-03-07T01:27:44;9.57;;;5.23;;
14686;SDS011;7431;49.440;11.084;2024-03-07T01:30:10;6.23;;;3.63;;
14686;SDS011;7431;49.440;11.084;2024-03-07T01:32:36;7.93;;;5.77;;
14686;SDS011;7431;49.440;11.084;2024-03-07T01:35:02;6.47;;;4.23;;
14686;SDS011;7431;49.440;11.084;2024-03-07T01:37:31;8.37;;;4.43;;
14686;SDS011;7431;49.440;11.084;2024-03-07T01:39:57;6.37;;;3.87;;
14686;SDS011;7431;49.440;11.084;2024-03-07T01:42:23;7.03;;;4.77;;
14686;SDS011;7431;49.440;11.084;2024-03-07T01:44:50;7.70;;;4.80;;
14686;SDS011;7431;49.440;11.084;2024-03-07T01:47:16;5.90;;;4.13;;
14686;SDS011;7431;49.440;11.084;2024-03-07T01:49:42;10.53;;;5.77;;
14686;SDS011;7431;49.440;11.084;2024-03-07T01:52:09;5.07;;;4.03;;
14686;SDS011;7431;49.440;11.084;2024-03-07T01:54:35;7.37;;;4.33;;
14686;SDS011;7431;49.440;11.084;2024-03-07T01:57:01;10.77;;;6.30;;
14686;SDS011;7431;49.440;11.084;2024-03-07T01:59:28;6.97;;;4.50;;
14686;SDS011;7431;49.440;11.084;2024-03-07T02:01:55;9.37;;;5.60;;
14686;SDS011;7431;49.440;11.084;2024-03-07T02:04:21;8.47;;;5.17;;
14686;SDS011;7431;49.440;11.084;2024-03-07T02:06:48;6.17;;;4.47;;
14686;SDS011;7431;49.440;11.084;2024-03-07T02:09:14;8.67;;;5.30;;
14686;SDS011;7431;49.440;11.084;2024-03-07T02:11:40;4.33;;;2.83;;
14686;SDS011;7431;49.440;11.084;2024-03-07T02:14:07;6.23;;;4.20;;
14686;SDS011;7431;49.440;11.084;2024-03-07T02:16:33;5.23;;;3.63;;
14686;SDS011;7431;49.440;11.084;2024-03-07T02:18:58;6.97;;;5.23;;
14686;SDS011;7431;49.440;11.084;2024-03-07T02:21:25;10.00;;;4.87;;
14686;SDS011;7431;49.440;11.084;2024-03-07T02:23:51;9.43;;;5.30;;
14686;SDS011;7431;49.440;11.084;2024-03-07T02:26:18;7.43;;;4.47;;
14686;SDS011;7431;49.440;11.084;2024-03-07T02:28:43;8.30;;;5.23;;
14686;SDS011;7431;49.440;11.084;2024-03-07T02:31:10;7.20;;;4.30;;
14686;SDS011;7431;49.440;11.084;2024-03-07T02:33:35;8.27;;;5.00;;
14686;SDS011;7431;49.440;11.084;2024-03-07T02:36:02;8.87;;;5.03;;
14686;SDS011;7431;49.440;11.084;2024-03-07T02:38:28;9.30;;;4.73;;
14686;SDS011;7431;49.440;11.084;2024-03-07T02:40:54;9.40;;;4.53;;
14686;SDS011;7431;49.440;11.084;2024-03-07T02:43:20;10.23;;;5.70;;
14686;SDS011;7431;49.440;11.084;2024-03-07T02:45:46;6.97;;;4.30;;
14686;SDS011;7431;49.440;11.084;2024-03-07T02:48:12;11.70;;;6.17;;
14686;SDS011;7431;49.440;11.084;2024-03-07T02:50:38;6.37;;;4.67;;
14686;SDS011;7431;49.440;11.084;2024-03-07T02:53:04;8.83;;;5.30;;
14686;SDS011;7431;49.440;11.084;2024-03-07T02:55:31;9.17;;;5.43;;
14686;SDS011;7431;49.440;11.084;2024-03-07T02:57:57;9.13;;;4.80;;
14686;SDS011;7431;49.440;11.084;2024-03-07T03:00:24;11.67;;;5.37;;
14686;SDS011;7431;49.440;11.084;2024-03-07T03:02:54;4.23;;;3.33;;
14686;SDS011;7431;49.440;11.084;2024-03-07T03:05:21;9.63;;;5.13;;
14686;SDS011;7431;49.440;11.084;2024-03-07T03:07:47;6.63;;;4.17;;
14686;SDS011;7431;49.440;11.084;2024-03-07T03:10:22;8.43;;;5.03;;
14686;SDS011;7431;49.440;11.084;2024-03-07T03:12:54;7.40;;;4.70;;
14686;SDS011;7431;49.440;11.084;2024-03-07T03:15:22;5.93;;;4.30;;
14686;SDS011;7431;49.440;11.084;2024-03-07T03:17:48;7.17;;;4.73;;
14686;SDS011;7431;49.440;11.084;2024-03-07T03:20:14;5.30;;;3.40;;
14686;SDS011;7431;49.440;11.084;2024-03-07T03:22:50;7.77;;;4.77;;
14686;SDS011;7431;49.440;11.084;2024-03-07T03:25:16;7.63;;;4.93;;
14686;SDS011;7431;49.440;11.084;2024-03-07T03:27:42;8.50;;;5.20;;
14686;SDS011;7431;49.440;11.084;2024-03-07T03:30:09;8.20;;;4.80;;
14686;SDS011;7431;49.440;11.084;2024-03-07T03:32:38;8.57;;;5.07;;
14686;SDS011;7431;49.440;11.084;2024-03-07T03:35:04;5.63;;;4.47;;
14686;SDS011;7431;49.440;11.084;2024-03-07T03:37:30;5.90;;;4.70;;
14686;SDS011;7431;49.440;11.084;2024-03-07T03:39:56;7.93;;;4.80;;
14686;SDS011;7431;49.440;11.084;2024-03-07T03:42:22;5.83;;;4.10;;
14686;SDS011;7431;49.440;11.084;2024-03-07T03:44:48;8.87;;;5.37;;
14686;SDS011;7431;49.440;11.084;2024-03-07T03:47:14;7.77;;;5.30;;
14686;SDS011;7431;49.440;11.084;2024-03-07T03:49:40;6.57;;;4.53;;
14686;SDS011;7431;49.440;11.084;2024-03-07T03:52:06;10.67;;;6.03;;
14686;SDS011;7431;49.440;11.084;2024-03-07T03:54:33;9.57;;;5.50;;
14686;SDS011;7431;49.440;11.084;2024-03-07T03:56:59;8.50;;;4.90;;
14686;SDS011;7431;49.440;11.084;2024-03-07T03:59:25;5.60;;;4.37;;
14686;SDS011;7431;49.440;11.084;2024-03-07T04:01:52;6.10;;;4.40;;
14686;SDS011;7431;49.440;11.084;2024-03-07T04:04:18;8.67;;;5.13;;
14686;SDS011;7431;49.440;11.084;2024-03-07T04:06:44;10.47;;;4.60;;
14686;SDS011;7431;49.440;11.084;2024-03-07T04:09:10;6.57;;;5.27;;
14686;SDS011;7431;49.440;11.084;2024-03-07T04:11:36;7.40;;;5.10;;
14686;SDS011;7431;49.440;11.084;2024-03-07T04:14:03;5.87;;;3.93;;
14686;SDS011;7431;49.440;11.084;2024-03-07T04:16:29;7.80;;;5.23;;
14686;SDS011;7431;49.440;11.084;2024-03-07T04:18:55;7.83;;;5.67;;
14686;SDS011;7431;49.440;11.084;2024-03-07T04:21:21;7.37;;;4.97;;
14686;SDS011;7431;49.440;11.084;2024-03-07T04:23:47;8.10;;;4.67;;
14686;SDS011;7431;49.440;11.084;2024-03-07T04:26:13;6.60;;;4.80;;
14686;SDS011;7431;49.440;11.084;2024-03-07T04:28:39;9.47;;;5.37;;
14686;SDS011;7431;49.440;11.084;2024-03-07T04:31:05;7.63;;;5.30;;
14686;SDS011;7431;49.440;11.084;2024-03-07T04:33:31;8.03;;;4.83;;
14686;SDS011;7431;49.440;11.084;2024-03-07T04:35:57;7.63;;;4.40;;
14686;SDS011;7431;49.440;11.084;2024-03-07T04:38:26;6.27;;;5.00;;
14686;SDS011;7431;49.440;11.084;2024-03-07T04:40:53;8.83;;;4.97;;
14686;SDS011;7431;49.440;11.084;2024-03-07T04:43:19;9.33;;;5.37;;
14686;SDS011;7431;49.440;11.084;2024-03-07T04:45:46;8.63;;;5.13;;
14686;SDS011;7431;49.440;11.084;2024-03-07T04:48:12;7.93;;;5.33;;
14686;SDS011;7431;49.440;11.084;2024-03-07T04:50:38;9.37;;;5.33;;
14686;SDS011;7431;49.440;11.084;2024-03-07T04:53:04;8.37;;;4.83;;
14686;SDS011;7431;49.440;11.084;2024-03-07T04:55:31;6.80;;;5.07;;
14686;SDS011;7431;49.440;11.084;2024-03-07T04:57:57;6.20;;;4.40;;
14686;SDS011;7431;49.440;11.084;2024-03-07T05:00:23;7.50;;;4.83;;
14686;SDS011;7431;49.440;11.084;2024-03-07T05:02:49;8.03;;;5.50;;
14686;SDS011;7431;49.440;11.084;2024-03-07T05:05:23;8.47;;;5.73;;
14686;SDS011;7431;49.440;11.084;2024-03-07T05:07:51;8.03;;;5.43;;
14686;SDS011;7431;49.440;11.084;2024-03-07T05:10:17;9.27;;;5.43;;
14686;SDS011;7431;49.440;11.084;2024-03-07T05:12:43;8.70;;;5.83;;
14686;SDS011;7431;49.440;11.084;2024-03-07T05:15:09;5.77;;;4.87;;
14686;SDS011;7431;49.440;11.084;2024-03-07T05:17:35;7.07;;;4.73;;
14686;SDS011;7431;49.440;11.084;2024-03-07T05:20:04;6.77;;;4.20;;
14686;SDS011;7431;49.440;11.084;2024-03-07T05:22:35;7.97;;;5.37;;
14686;SDS011;7431;49.440;11.084;2024-03-07T05:25:04;9.37;;;5.33;;
14686;SDS011;7431;49.440;11.084;2024-03-07T05:27:30;8.23;;;4.70;;
14686;SDS011;7431;49.440;11.084;2024-03-07T05:29:56;6.47;;;4.93;;
14686;SDS011;7431;49.440;11.084;2024-03-07T05:32:26;9.10;;;5.23;;
14686;SDS011;7431;49.440;11.084;2024-03-07T05:34:52;6.60;;;4.83;;
14686;SDS011;7431;49.440;11.084;2024-03-07T05:37:19;5.57;;;4.40;;
14686;SDS011;7431;49.440;11.084;2024-03-07T05:39:47;9.00;;;5.70;;
14686;SDS011;7431;49.440;11.084;2024-03-07T05:42:13;7.47;;;5.00;;
14686;SDS011;7431;49.440;11.084;2024-03-07T05:44:40;7.43;;;5.40;;
14686;SDS011;7431;49.440;11.084;2024-03-07T05:47:06;7.57;;;5.13;;
14686;SDS011;7431;49.440;11.084;2024-03-07T05:49:32;8.03;;;5.87;;
14686;SDS011;7431;49.440;11.084;2024-03-07T05:51:58;7.50;;;5.47;;
14686;SDS011;7431;49.440;11.084;2024-03-07T05:54:25;8.90;;;5.20;;
14686;SDS011;7431;49.440;11.084;2024-03-07T05:56:51;8.63;;;6.00;;
14686;SDS011;7431;49.440;11.084;2024-03-07T05:59:17;9.37;;;5.60;;
14686;SDS011;7431;49.440;11.084;2024-03-07T06:01:43;9.80;;;5.43;;
14686;SDS011;7431;49.440;11.084;2024-03-07T06:04:12;8.53;;;5.30;;
14686;SDS011;7431;49.440;11.084;2024-03-07T06:06:38;9.40;;;5.43;;
14686;SDS011;7431;49.440;11.084;2024-03-07T06:09:06;10.20;;;6.33;;
14686;SDS011;7431;49.440;11.084;2024-03-07T06:11:36;10.60;;;5.60;;
14686;SDS011;7431;49.440;11.084;2024-03-07T06:14:03;8.97;;;5.87;;
14686;SDS011;7431;49.440;11.084;2024-03-07T06:16:29;6.80;;;3.60;;
14686;SDS011;7431;49.440;11.084;2024-03-07T06:18:57;8.90;;;5.80;;
14686;SDS011;7431;49.440;11.084;2024-03-07T06:21:23;9.17;;;5.70;;
14686;SDS011;7431;49.440;11.084;2024-03-07T06:23:50;6.63;;;5.20;;
14686;SDS011;7431;49.440;11.084;2024-03-07T06:26:24;11.20;;;6.37;;
14686;SDS011;7431;49.440;11.084;2024-03-07T06:29:02;7.90;;;5.63;;
14686;SDS011;7431;49.440;11.084;2024-03-07T06:31:30;9.83;;;5.63;;
14686;SDS011;7431;49.440;11.084;2024-03-07T06:33:56;8.23;;;5.17;;
14686;SDS011;7431;49.440;11.084;2024-03-07T06:36:22;10.13;;;5.27;;
14686;SDS011;7431;49.440;11.084;2024-03-07T06:38:50;11.30;;;6.43;;
14686;SDS011;7431;49.440;11.084;2024-03-07T06:41:15;11.40;;;6.80;;
14686;SDS011;7431;49.440;11.084;2024-03-07T06:43:45;10.70;;;6.70;;
14686;SDS011;7431;49.440;11.084;2024-03-07T06:46:11;11.27;;;7.50;;
14686;SDS011;7431;49.440;11.084;2024-03-07T06:48:37;11.37;;;6.73;;
14686;SDS011;7431;49.440;11.084;2024-03-07T06:51:11;9.93;;;6.53;;
14686;SDS011;7431;49.440;11.084;2024-03-07T06:53:38;10.20;;;6.50;;
14686;SDS011;7431;49.440;11.084;2024-03-07T06:56:13;12.40;;;7.40;;
14686;SDS011;7431;49.440;11.084;2024-03-07T06:58:41;9.73;;;6.47;;
14686;SDS011;7431;49.440;11.084;2024-03-07T07:01:08;13.10;;;7.43;;
14686;SDS011;7431;49.440;11.084;2024-03-07T07:03:38;8.40;;;6.03;;
14686;SDS011;7431;49.440;11.084;2024-03-07T07:06:07;12.40;;;7.17;;
14686;SDS011;7431;49.440;11.084;2024-03-07T07:13:47;13.00;;;7.17;;
14686;SDS011;7431;49.440;11.084;2024-03-07T07:16:13;11.03;;;7.00;;
14686;SDS011;7431;49.440;11.084;2024-03-07T07:18:39;10.03;;;6.60;;
14686;SDS011;7431;49.440;11.084;2024-03-07T07:21:09;11.97;;;7.23;;
14686;SDS011;7431;49.440;11.084;2024-03-07T07:23:42;10.20;;;7.00;;
14686;SDS011;7431;49.440;11.084;2024-03-07T07:26:08;11.10;;;6.97;;
14686;SDS011;7431;49.440;11.084;2024-03-07T07:31:38;10.53;;;7.30;;
14686;SDS011;7431;49.440;11.084;2024-03-07T07:34:12;9.90;;;7.43;;
14686;SDS011;7431;49.440;11.084;2024-03-07T07:36:59;8.93;;;7.03;;
14686;SDS011;7431;49.440;11.084;2024-03-07T07:39:37;15.33;;;6.93;;
14686;SDS011;7431;49.440;11.084;2024-03-07T07:42:19;10.43;;;6.40;;
14686;SDS011;7431;49.440;11.084;2024-03-07T07:45:29;10.43;;;6.93;;
14686;SDS011;7431;49.440;11.084;2024-03-07T08:01:17;8.30;;;6.50;;
14686;SDS011;7431;49.440;11.084;2024-03-07T08:03:43;9.40;;;7.30;;
14686;SDS011;7431;49.440;11.084;2024-03-07T08:06:27;11.23;;;7.60;;
14686;SDS011;7431;49.440;11.084;2024-03-07T08:08:59;10.93;;;7.37;;
14686;SDS011;7431;49.440;11.084;2024-03-07T08:11:35;12.23;;;7.70;;
14686;SDS011;7431;49.440;11.084;2024-03-07T08:14:04;12.07;;;8.10;;
14686;SDS011;7431;49.440;11.084;2024-03-07T08:16:31;9.27;;;6.50;;
14686;SDS011;7431;49.440;11.084;2024-03-07T08:18:58;11.33;;;7.40;;
14686;SDS011;7431;49.440;11.084;2024-03-07T08:21:27;10.33;;;7.33;;
14686;SDS011;7431;49.440;11.084;2024-03-07T08:24:00;10.17;;;7.73;;
14686;SDS011;7431;49.440;11.084;2024-03-07T08:26:35;10.47;;;6.73;;
14686;SDS011;7431;49.440;11.084;2024-03-07T08:29:02;9.47;;;7.20;;
14686;SDS011;7431;49.440;11.084;2024-03-07T08:31:28;11.50;;;7.40;;
14686;SDS011;7431;49.440;11.084;2024-03-07T08:33:54;11.57;;;7.40;;
14686;SDS011;7431;49.440;11.084;2024-03-07T08:36:20;11.47;;;7.77;;
14686;SDS011;7431;49.440;11.084;2024-03-07T08:38:47;10.33;;;7.23;;
14686;SDS011;7431;49.440;11.084;2024-03-07T08:41:19;11.03;;;7.33;;
14686;SDS011;7431;49.440;11.084;2024-03-07T08:47:19;9.73;;;7.33;;
14686;SDS011;7431;49.440;11.084;2024-03-07T08:49:46;10.50;;;7.23;;
14686;SDS011;7431;49.440;11.084;2024-03-07T08:52:11;9.23;;;6.70;;
14686;SDS011;7431;49.440;11.084;2024-03-07T08:54:37;10.17;;;7.57;;
14686;SDS011;7431;49.440;11.084;2024-03-07T08:57:03;11.27;;;7.77;;
14686;SDS011;7431;49.440;11.084;2024-03-07T08:59:30;10.77;;;7.77;;
14686;SDS011;7431;49.440;11.084;2024-03-07T09:01:58;12.87;;;7.77;;
14686;SDS011;7431;49.440;11.084;2024-03-07T09:04:26;13.20;;;8.30;;
14686;SDS011;7431;49.440;11.084;2024-03-07T09:06:54;10.23;;;7.10;;
14686;SDS011;7431;49.440;11.084;2024-03-07T09:09:19;10.90;;;7.33;;
14686;SDS011;7431;49.440;11.084;2024-03-07T09:11:45;6.70;;;5.23;;
14686;SDS011;7431;49.440;11.084;2024-03-07T09:14:15;11.83;;;7.43;;
14686;SDS011;7431;49.440;11.084;2024-03-07T09:16:41;12.07;;;7.67;;
14686;SDS011;7431;49.440;11.084;2024-03-07T09:19:08;11.23;;;7.23;;
14686;SDS011;7431;49.440;11.084;2024-03-07T09:21:39;9.47;;;6.93;;
14686;SDS011;7431;49.440;11.084;2024-03-07T09:24:05;9.43;;;6.67;;
14686;SDS011;7431;49.440;11.084;2024-03-07T09:26:32;11.67;;;7.63;;
14686;SDS011;7431;49.440;11.084;2024-03-07T09:28:59;11.43;;;7.20;;
14686;SDS011;7431;49.440;11.084;2024-03-07T09:31:30;12.27;;;7.50;;
14686;SDS011;7431;49.440;11.084;2024-03-07T09:33:59;9.77;;;6.70;;
14686;SDS011;7431;49.440;11.084;2024-03-07T09:36:26;9.73;;;6.57;;
14686;SDS011;7431;49.440;11.084;2024-03-07T09:38:55;10.93;;;7.53;;
14686;SDS011;7431;49.440;11.084;2024-03-07T09:41:22;10.90;;;7.07;;
14686;SDS011;7431;49.440;11.084;2024-03-07T09:43:53;9.87;;;6.77;;
14686;SDS011;7431;49.440;11.084;2024-03-07T09:46:21;10.20;;;6.20;;
14686;SDS011;7431;49.440;11.084;2024-03-07T09:48:51;10.13;;;6.97;;
14686;SDS011;7431;49.440;11.084;2024-03-07T09:51:19;9.20;;;6.80;;
14686;SDS011;7431;49.440;11.084;2024-03-07T09:53:49;9.30;;;6.20;;
14686;SDS011;7431;49.440;11.084;2024-03-07T09:56:21;8.33;;;6.27;;
14686;SDS011;7431;49.440;11.084;2024-03-07T09:58:48;10.83;;;7.20;;
14686;SDS011;7431;49.440;11.084;2024-03-07T10:01:19;9.83;;;7.00;;
14686;SDS011;7431;49.440;11.084;2024-03-07T10:03:46;9.93;;;6.67;;
14686;SDS011;7431;49.440;11.084;2024-03-07T10:06:12;11.00;;;6.67;;
14686;SDS011;7431;49.440;11.084;2024-03-07T10:08:42;10.30;;;6.67;;
14686;SDS011;7431;49.440;11.084;2024-03-07T10:11:08;8.97;;;6.73;;
14686;SDS011;7431;49.440;11.084;2024-03-07T10:13:35;10.83;;;6.83;;
14686;SDS011;7431;49.440;11.084;2024-03-07T10:16:01;11.97;;;7.00;;
14686;SDS011;7431;49.440;11.084;2024-03-07T10:18:30;12.93;;;6.53;;
14686;SDS011;7431;49.440;11.084;2024-03-07T10:20:57;10.00;;;6.23;;
14686;SDS011;7431;49.440;11.084;2024-03-07T10:23:36;9.07;;;6.40;;
14686;SDS011;7431;49.440;11.084;2024-03-07T10:26:05;9.40;;;6.00;;
14686;SDS011;7431;49.440;11.084;2024-03-07T10:28:32;8.57;;;5.97;;
14686;SDS011;7431;49.440;11.084;2024-03-07T10:31:02;8.40;;;6.50;;
14686;SDS011;7431;49.440;11.084;2024-03-07T10:33:28;10.03;;;6.80;;
14686;SDS011;7431;49.440;11.084;2024-03-07T10:35:59;9.23;;;6.70;;
14686;SDS011;7431;49.440;11.084;2024-03-07T10:38:26;12.83;;;7.43;;
14686;SDS011;7431;49.440;11.084;2024-03-07T10:40:53;9.43;;;6.57;;
14686;SDS011;7431;49.440;11.084;2024-03-07T10:43:20;8.57;;;6.77;;
14686;SDS011;7431;49.440;11.084;2024-03-07T10:45:49;9.07;;;6.67;;
14686;SDS011;7431;49.440;11.084;2024-03-07T10:48:21;10.97;;;7.57;;
14686;SDS011;7431;49.440;11.084;2024-03-07T10:51:02;13.67;;;6.93;;
14686;SDS011;7431;49.440;11.084;2024-03-07T10:59:08;7.90;;;5.70;;
14686;SDS011;7431;49.440;11.084;2024-03-07T11:01:41;7.53;;;6.00;;
14686;SDS011;7431;49.440;11.084;2024-03-07T11:04:08;7.70;;;6.50;;
14686;SDS011;7431;49.440;11.084;2024-03-07T11:06:35;10.30;;;6.90;;
14686;SDS011;7431;49.440;11.084;2024-03-07T11:09:02;8.93;;;6.60;;
14686;SDS011;7431;49.440;11.084;2024-03-07T11:11:36;9.70;;;7.03;;
14686;SDS011;7431;49.440;11.084;2024-03-07T11:14:02;10.53;;;7.00;;
14686;SDS011;7431;49.440;11.084;2024-03-07T11:16:29;10.00;;;6.93;;
14686;SDS011;7431;49.440;11.084;2024-03-07T11:19:28;10.40;;;6.50;;
14686;SDS011;7431;49.440;11.084;2024-03-07T11:21:47;10.73;;;6.43;;
14686;SDS011;7431;49.440;11.084;2024-03-07T11:24:24;12.57;;;7.17;;
14686;SDS011;7431;49.440;11.084;2024-03-07T11:26:56;9.60;;;6.47;;
14686;SDS011;7431;49.440;11.084;2024-03-07T11:32:08;11.23;;;6.70;;
14686;SDS011;7431;49.440;11.084;2024-03-07T11:34:37;12.03;;;6.83;;
14686;SDS011;7431;49.440;11.084;2024-03-07T11:37:37;10.90;;;6.77;;
14686;SDS011;7431;49.440;11.084;2024-03-07T11:40:13;13.93;;;6.77;;
14686;SDS011;7431;49.440;11.084;2024-03-07T11:42:48;9.53;;;6.90;;
14686;SDS011;7431;49.440;11.084;2024-03-07T11:45:15;8.67;;;6.33;;
14686;SDS011;7431;49.440;11.084;2024-03-07T11:47:51;10.40;;;6.73;;
14686;SDS011;7431;49.440;11.084;2024-03-07T11:50:38;7.53;;;5.97;;
14686;SDS011;7431;49.440;11.084;2024-03-07T11:53:05;9.13;;;5.63;;
14686;SDS011;7431;49.440;11.084;2024-03-07T11:55:35;8.00;;;5.77;;
14686;SDS011;7431;49.440;11.084;2024-03-07T11:58:15;8.67;;;6.33;;
14686;SDS011;7431;49.440;11.084;2024-03-07T12:00:45;12.23;;;7.03;;
14686;SDS011;7431;49.440;11.084;2024-03-07T12:03:12;10.27;;;6.80;;
14686;SDS011;7431;49.440;11.084;2024-03-07T12:05:41;11.43;;;7.13;;
14686;SDS011;7431;49.440;11.084;2024-03-07T12:08:08;10.30;;;6.30;;
14686;SDS011;7431;49.440;11.084;2024-03-07T12:10:35;8.70;;;6.27;;
14686;SDS011;7431;49.440;11.084;2024-03-07T12:13:01;8.37;;;6.17;;
14686;SDS011;7431;49.440;11.084;2024-03-07T12:15:27;9.20;;;7.00;;
14686;SDS011;7431;49.440;11.084;2024-03-07T12:17:53;9.60;;;6.07;;
14686;SDS011;7431;49.440;11.084;2024-03-07T12:20:20;9.97;;;6.40;;
14686;SDS011;7431;49.440;11.084;2024-03-07T12:22:59;7.57;;;6.20;;
14686;SDS011;7431;49.440;11.084;2024-03-07T12:25:27;8.60;;;6.30;;
14686;SDS011;7431;49.440;11.084;2024-03-07T12:28:01;9.50;;;6.10;;
14686;SDS011;7431;49.440;11.084;2024-03-07T12:30:31;7.80;;;5.63;;
14686;SDS011;7431;49.440;11.084;2024-03-07T12:32:58;9.23;;;6.70;;
14686;SDS011;7431;49.440;11.084;2024-03-07T12:35:25;9.83;;;6.13;;
14686;SDS011;7431;49.440;11.084;2024-03-07T12:37:51;8.10;;;5.93;;
14686;SDS011;7431;49.440;11.084;2024-03-07T12:40:19;9.93;;;6.20;;
14686;SDS011;7431;49.440;11.084;2024-03-07T12:42:50;8.27;;;5.63;;
14686;SDS011;7431;49.440;11.084;2024-03-07T12:45:19;6.87;;;5.40;;
14686;SDS011;7431;49.440;11.084;2024-03-07T12:47:55;8.43;;;6.37;;
14686;SDS011;7431;49.440;11.084;2024-03-07T12:50:21;6.63;;;5.50;;
14686;SDS011;7431;49.440;11.084;2024-03-07T12:52:48;8.43;;;6.00;;
14686;SDS011;7431;49.440;11.084;2024-03-07T12:55:17;7.13;;;5.63;;
14686;SDS011;7431;49.440;11.084;2024-03-07T12:57:44;9.47;;;6.03;;
14686;SDS011;7431;49.440;11.084;2024-03-07T13:00:10;9.43;;;6.60;;
14686;SDS011;7431;49.440;11.084;2024-03-07T13:02:44;10.73;;;6.73;;
14686;SDS011;7431;49.440;11.084;2024-03-07T13:05:10;8.23;;;6.07;;
14686;SDS011;7431;49.440;11.084;2024-03-07T13:07:46;10.10;;;6.70;;
14686;SDS011;7431;49.440;11.084;2024-03-07T13:10:13;9.60;;;6.70;;
14686;SDS011;7431;49.440;11.084;2024-03-07T13:12:45;8.17;;;6.03;;
14686;SDS011;7431;49.440;11.084;2024-03-07T13:15:13;7.53;;;5.67;;
14686;SDS011;7431;49.440;11.084;2024-03-07T13:17:40;7.20;;;5.50;;
14686;SDS011;7431;49.440;11.084;2024-03-07T13:20:08;8.73;;;6.30;;
14686;SDS011;7431;49.440;11.084;2024-03-07T13:22:41;10.67;;;7.47;;
14686;SDS011;7431;49.440;11.084;2024-03-07T13:25:13;12.23;;;7.07;;
14686;SDS011;7431;49.440;11.084;2024-03-07T13:27:42;10.03;;;6.13;;
14686;SDS011;7431;49.440;11.084;2024-03-07T13:30:09;10.37;;;6.80;;
14686;SDS011;7431;49.440;11.084;2024-03-07T13:32:38;6.67;;;5.97;;
14686;SDS011;7431;49.440;11.084;2024-03-07T13:35:07;10.10;;;7.10;;
14686;SDS011;7431;49.440;11.084;2024-03-07T13:37:36;8.03;;;6.20;;
14686;SDS011;7431;49.440;11.084;2024-03-07T13:40:02;10.23;;;6.73;;
14686;SDS011;7431;49.440;11.084;2024-03-07T13:42:47;8.73;;;6.23;;
14686;SDS011;7431;49.440;11.084;2024-03-07T13:45:21;9.67;;;6.43;;
14686;SDS011;7431;49.440;11.084;2024-03-07T13:47:47;8.60;;;6.33;;
14686;SDS011;7431;49.440;11.084;2024-03-07T13:50:15;14.40;;;7.33;;
14686;SDS011;7431;49.440;11.084;2024-03-07T13:52:41;10.67;;;6.30;;
14686;SDS011;7431;49.440;11.084;2024-03-07T13:55:19;9.10;;;6.37;;
14686;SDS011;7431;49.440;11.084;2024-03-07T13:57:49;9.67;;;6.27;;
14686;SDS011;7431;49.440;11.084;2024-03-07T14:06:07;7.87;;;5.67;;
14686;SDS011;7431;49.440;11.084;2024-03-07T14:14:18;9.07;;;6.00;;
14686;SDS011;7431;49.440;11.084;2024-03-07T14:25:46;9.17;;;6.57;;
14686;SDS011;7431;49.440;11.084;2024-03-07T14:31:03;9.63;;;6.30;;
14686;SDS011;7431;49.440;11.084;2024-03-07T14:39:07;12.93;;;7.37;;
14686;SDS011;7431;49.440;11.084;2024-03-07T14:41:49;9.53;;;7.07;;
14686;SDS011;7431;49.440;11.084;2024-03-07T14:44:18;9.37;;;6.87;;
14686;SDS011;7431;49.440;11.084;2024-03-07T14:46:46;11.70;;;7.13;;
14686;SDS011;7431;49.440;11.084;2024-03-07T14:49:14;10.67;;;6.93;;
14686;SDS011;7431;49.440;11.084;2024-03-07T14:51:40;10.20;;;6.90;;
14686;SDS011;7431;49.440;11.084;2024-03-07T14:54:09;9.10;;;6.87;;
14686;SDS011;7431;49.440;11.084;2024-03-07T14:56:35;10.87;;;7.00;;
14686;SDS011;7431;49.440;11.084;2024-03-07T14:59:01;11.10;;;7.67;;
14686;SDS011;7431;49.440;11.084;2024-03-07T15:01:29;13.03;;;6.67;;
14686;SDS011;7431;49.440;11.084;2024-03-07T15:04:07;11.20;;;7.20;;
14686;SDS011;7431;49.440;11.084;2024-03-07T15:06:36;7.57;;;6.07;;
14686;SDS011;7431;49.440;11.084;2024-03-07T15:09:02;8.23;;;6.00;;
14686;SDS011;7431;49.440;11.084;2024-03-07T15:11:30;11.83;;;7.07;;
14686;SDS011;7431;49.440;11.084;2024-03-07T15:13:58;8.53;;;6.37;;
14686;SDS011;7431;49.440;11.084;2024-03-07T15:16:29;10.33;;;6.80;;
14686;SDS011;7431;49.440;11.084;2024-03-07T15:18:59;10.17;;;7.10;;
14686;SDS011;7431;49.440;11.084;2024-03-07T15:21:26;12.77;;;7.27;;
14686;SDS011;7431;49.440;11.084;2024-03-07T15:23:54;10.07;;;6.60;;
14686;SDS011;7431;49.440;11.084;2024-03-07T15:26:23;10.73;;;7.00;;
14686;SDS011;7431;49.440;11.084;2024-03-07T15:28:50;13.90;;;7.93;;
14686;SDS011;7431;49.440;11.084;2024-03-07T15:31:16;12.83;;;7.63;;
14686;SDS011;7431;49.440;11.084;2024-03-07T15:33:45;12.03;;;7.53;;
14686;SDS011;7431;49.440;11.084;2024-03-07T15:36:15;11.90;;;7.60;;
14686;SDS011;7431;49.440;11.084;2024-03-07T15:38:41;10.83;;;7.70;;
14686;SDS011;7431;49.440;11.084;2024-03-07T15:41:10;11.87;;;7.53;;
14686;SDS011;7431;49.440;11.084;2024-03-07T15:43:39;12.93;;;7.83;;
14686;SDS011;7431;49.440;11.084;2024-03-07T15:46:08;9.80;;;6.70;;
14686;SDS011;7431;49.440;11.084;2024-03-07T15:48:41;11.07;;;7.47;;
14686;SDS011;7431;49.440;11.084;2024-03-07T15:51:12;10.30;;;6.77;;
14686;SDS011;7431;49.440;11.084;2024-03-07T15:53:39;13.63;;;8.27;;